Time;durP1;ratioP1;P1;durP2;ratioP2;P2;SDS_P1;SDS_P2;PMS_P1;PMS_P2;Temp;Humidity;BMP_temperature;BMP_pressure;BME280_temperature;BME280_humidity;BME280_pressure;Samples;Min_cycle;Max_cycle;Signal;HPM_P1;HPM_P2
2023/09/21 00:00:59;;;;;;;;;;;;;;;21.68;55.58;99679.41;4229670;28;19930;-68
2023/09/21 00:03:02;;;;;;;;;;;;;;;21.68;55.64;99668.72;4229755;28;19927;-68
2023/09/21 00:05:04;;;;;;;;;;;;;;;21.67;55.67;99681.22;4229518;28;20028;-68
2023/09/21 00:07:05;;;;;;;;;;;;;;;21.66;55.61;99668.84;4229733;28;20276;-68
2023/09/21 00:09:08;;;;;;;;;;;;;;;21.66;55.65;99659.97;4229648;28;19962;-67
2023/09/21 00:11:10;;;;;;;;;;;;;;;21.65;55.51;99655.63;4211242;28;19928;-67
2023/09/21 00:13:12;;;;;;;;;;;;;;;21.65;55.73;99672.53;4229547;28;19924;-68
2023/09/21 00:15:16;;;;;;;;;;;;;;;21.65;55.59;99666.31;4229653;28;20355;-67
2023/09/21 00:17:18;;;;;;;;;;;;;;;21.65;55.89;99664.50;4229713;28;19924;-68
2023/09/21 00:19:22;;;;;;;;;;;;;;;21.64;55.58;99672.66;4229900;28;19923;-67
2023/09/21 00:21:25;;;;;;;;;;;;;;;21.63;55.60;99662.94;4229384;28;20349;-67
2023/09/21 00:23:26;;;;;;;;;;;;;;;21.63;55.73;99670.97;4229472;28;19927;-68
2023/09/21 00:25:28;;;;;;;;;;;;;;;21.62;55.73;99667.47;4229762;28;20018;-68
2023/09/21 00:27:29;;;;;;;;;;;;;;;21.62;55.63;99651.41;4229425;28;20082;-68
2023/09/21 00:29:31;;;;;;;;;;;;;;;21.61;55.71;99655.09;4229787;28;20273;-68
2023/09/21 00:31:33;;;;;;;;;;;;;;;21.61;55.58;99646.22;4229354;28;19924;-68
2023/09/21 00:33:34;;;;;;;;;;;;;;;21.61;55.94;99651.59;4229520;28;19924;-68
2023/09/21 00:35:39;;;;;;;;;;;;;;;21.60;56.05;99653.41;4229629;28;19923;-68
2023/09/21 00:37:42;;;;;;;;;;;;;;;21.61;55.94;99657.75;4229026;28;19940;-68
2023/09/21 00:39:44;;;;;;;;;;;;;;;21.61;56.02;99651.59;4229380;28;20019;-68
2023/09/21 00:41:47;;;;;;;;;;;;;;;21.60;56.01;99649.91;4229190;28;19967;-68
2023/09/21 00:43:49;;;;;;;;;;;;;;;21.59;55.81;99642.84;4229656;28;19928;-67
2023/09/21 00:45:54;;;;;;;;;;;;;;;21.58;56.14;99644.72;4230926;28;19924;-68
2023/09/21 00:47:56;;;;;;;;;;;;;;;21.57;56.11;99629.63;4228752;28;19997;-68
2023/09/21 00:49:58;;;;;;;;;;;;;;;21.57;56.11;99634.13;4232725;28;20249;-67
2023/09/21 00:51:59;;;;;;;;;;;;;;;21.57;56.02;99643.03;4231824;28;19931;-67
2023/09/21 00:54:07;;;;;;;;;;;;;;;21.57;56.14;99637.66;4232498;28;19974;-68
2023/09/21 00:56:11;;;;;;;;;;;;;;;21.57;56.37;99642.16;4232357;28;19924;-67
2023/09/21 00:58:14;;;;;;;;;;;;;;;21.55;56.28;99645.78;4232154;28;20345;-68
2023/09/21 01:00:16;;;;;;;;;;;;;;;21.52;56.28;99639.94;4232461;28;19959;-68
2023/09/21 01:02:19;;;;;;;;;;;;;;;21.54;56.63;99646.81;4232060;28;19934;-67
2023/09/21 01:04:21;;;;;;;;;;;;;;;21.55;56.41;99644.97;4232408;28;19970;-68
2023/09/21 01:06:23;;;;;;;;;;;;;;;21.54;56.26;99646.81;4232055;28;19930;-67
2023/09/21 01:08:28;;;;;;;;;;;;;;;21.55;56.69;99640.44;4231994;28;19928;-67
2023/09/21 01:10:33;;;;;;;;;;;;;;;21.54;56.38;99619.19;4232266;28;19924;-68
2023/09/21 01:12:35;;;;;;;;;;;;;;;21.43;56.77;99592.69;4232044;28;20060;-67
2023/09/21 01:14:37;;;;;;;;;;;;;;;21.52;56.73;99630.06;4232400;28;19924;-68
2023/09/21 01:16:40;;;;;;;;;;;;;;;21.52;56.90;99626.56;4232219;28;19931;-68
2023/09/21 01:18:41;;;;;;;;;;;;;;;21.52;56.97;99626.56;4231964;28;20296;-68
2023/09/21 01:20:44;;;;;;;;;;;;;;;21.51;57.05;99627.53;4231441;28;19930;-67
2023/09/21 01:23:00;;;;;;;;;;;;;;;21.51;56.75;99631.06;4231829;28;19924;-68
2023/09/21 01:25:02;;;;;;;;;;;;;;;21.50;57.18;99626.69;4232082;28;19931;-67
2023/09/21 01:27:03;;;;;;;;;;;;;;;21.49;57.23;99633.03;4231828;28;19924;-68
2023/09/21 01:29:06;;;;;;;;;;;;;;;21.49;57.44;99627.69;4231437;28;20002;-68
2023/09/21 01:31:09;;;;;;;;;;;;;;;21.49;57.14;99632.19;4215300;28;19928;-68
2023/09/21 01:33:11;;;;;;;;;;;;;;;21.48;57.51;99617.13;4222637;28;19954;-68
2023/09/21 01:35:14;;;;;;;;;;;;;;;21.48;57.47;99617.13;4231515;28;19954;-68
2023/09/21 01:37:15;;;;;;;;;;;;;;;21.46;57.63;99617.31;4232020;28;20327;-68
2023/09/21 01:39:17;;;;;;;;;;;;;;;21.47;57.69;99615.44;4231608;28;20297;-68
2023/09/21 01:41:19;;;;;;;;;;;;;;;21.45;57.54;99617.47;4231912;28;19928;-68
2023/09/21 01:43:21;;;;;;;;;;;;;;;21.44;57.75;99613.09;4231226;28;19935;-68
2023/09/21 01:45:22;;;;;;;;;;;;;;;21.44;57.81;99621.13;4231827;28;20014;-68
2023/09/21 01:47:25;;;;;;;;;;;;;;;21.43;57.60;99612.25;4231767;28;20088;-68
2023/09/21 01:49:26;;;;;;;;;;;;;;;21.43;57.60;99619.44;4231392;28;20006;-68
2023/09/21 01:51:34;;;;;;;;;;;;;;;21.43;58.33;99622.13;4231364;28;19931;-68
2023/09/21 01:53:35;;;;;;;;;;;;;;;21.42;58.16;99620.44;4231417;28;20333;-67
2023/09/21 01:55:38;;;;;;;;;;;;;;;21.41;58.55;99616.06;4231447;28;19928;-68
2023/09/21 01:57:39;;;;;;;;;;;;;;;21.41;58.89;99608.03;4231579;28;19924;-67
2023/09/21 01:59:41;;;;;;;;;;;;;;;21.40;58.39;99601.88;4231306;28;19923;-68
2023/09/21 02:01:43;;;;;;;;;;;;;;;21.38;59.03;99593.97;4231553;28;20018;-67
2023/09/21 02:03:44;;;;;;;;;;;;;;;21.38;58.89;99593.13;4231330;28;19923;-67
2023/09/21 02:05:46;;;;;;;;;;;;;;;21.37;59.02;99586.09;4213232;28;19925;-68
2023/09/21 02:07:48;;;;;;;;;;;;;;;21.36;58.86;99587.94;4231337;28;20038;-68
2023/09/21 02:09:49;;;;;;;;;;;;;;;21.36;59.07;99585.28;4230942;28;20023;-67
2023/09/21 02:11:51;;;;;;;;;;;;;;;21.35;59.23;99583.59;4231203;28;20373;-67
2023/09/21 02:13:52;;;;;;;;;;;;;;;21.35;59.18;99580.91;4231130;28;19923;-67
2023/09/21 02:15:54;;;;;;;;;;;;;;;21.35;59.28;99572.03;4231175;28;20046;-68
2023/09/21 02:17:56;;;;;;;;;;;;;;;21.33;59.45;99564.16;4231250;28;20298;-68
2023/09/21 02:19:58;;;;;;;;;;;;;;;21.33;59.42;99561.50;4230740;28;20430;-67
2023/09/21 02:22:00;;;;;;;;;;;;;;;21.33;59.57;99560.66;4230810;28;20312;-67
2023/09/21 02:24:04;;;;;;;;;;;;;;;21.32;59.34;99557.13;4231058;28;20292;-68
2023/09/21 02:26:06;;;;;;;;;;;;;;;21.32;59.67;99553.63;4229870;28;19931;-68
2023/09/21 02:28:11;;;;;;;;;;;;;;;21.31;59.39;99550.13;4230883;28;19928;-68
2023/09/21 02:30:14;;;;;;;;;;;;;;;21.31;59.42;99555.47;4230705;28;20028;-68
2023/09/21 02:32:17;;;;;;;;;;;;;;;21.31;59.83;99551.94;4231039;28;19924;-67
2023/09/21 02:34:19;;;;;;;;;;;;;;;21.30;59.55;99545.78;4246649;27;19939;-68
2023/09/21 02:36:20;;;;;;;;;;;;;;;21.31;59.70;99549.28;4230814;28;19924;-68
2023/09/21 02:38:23;;;;;;;;;;;;;;;21.30;59.61;99539.56;4214061;28;20340;-68
2023/09/21 02:40:24;;;;;;;;;;;;;;;21.28;59.59;99531.72;4221115;28;19923;-68
2023/09/21 02:42:26;;;;;;;;;;;;;;;21.28;59.73;99528.22;4230784;28;19927;-68
2023/09/21 02:44:29;;;;;;;;;;;;;;;21.28;59.90;99522.84;4230773;28;19928;-67
2023/09/21 02:46:30;;;;;;;;;;;;;;;21.28;60.10;99520.19;4230399;28;20356;-68
2023/09/21 02:48:33;;;;;;;;;;;;;;;21.27;60.35;99513.97;4230475;28;19951;-68
2023/09/21 02:50:34;;;;;;;;;;;;;;;21.26;60.22;99512.28;4230508;28;19977;-67
2023/09/21 02:52:36;;;;;;;;;;;;;;;21.25;60.14;99507.94;4230467;28;19963;-68
2023/09/21 02:54:38;;;;;;;;;;;;;;;21.25;60.31;99501.75;4230563;28;20464;-68
2023/09/21 02:56:40;;;;;;;;;;;;;;;21.25;60.00;99504.44;4230449;28;19977;-68
2023/09/21 02:58:41;;;;;;;;;;;;;;;21.25;59.97;99496.41;4230552;28;20340;-67
2023/09/21 03:00:45;;;;;;;;;;;;;;;21.25;60.35;99504.44;4230500;28;19975;-68
2023/09/21 03:02:49;;;;;;;;;;;;;;;21.25;60.45;99493.75;4229055;28;19924;-67
2023/09/21 03:04:52;;;;;;;;;;;;;;;21.22;60.58;99498.38;4230524;28;19924;-67
2023/09/21 03:06:55;;;;;;;;;;;;;;;21.23;60.41;99494.72;4212036;28;19931;-67
2023/09/21 03:08:57;;;;;;;;;;;;;;;21.22;60.16;99487.69;4229453;28;19938;-67
2023/09/21 03:10:58;;;;;;;;;;;;;;;21.22;60.45;99493.03;4230071;28;19924;-67
2023/09/21 03:13:00;;;;;;;;;;;;;;;21.21;60.49;99494.03;4230223;28;20007;-67
2023/09/21 03:15:03;;;;;;;;;;;;;;;21.21;60.21;99486.00;4230453;28;19992;-66
2023/09/21 03:17:05;;;;;;;;;;;;;;;21.21;60.21;99501.22;4229626;28;19969;-67
2023/09/21 03:19:08;;;;;;;;;;;;;;;21.21;60.54;99490.53;4230373;28;19923;-67
2023/09/21 03:21:11;;;;;;;;;;;;;;;21.20;60.60;99494.19;4230026;28;19927;-67
2023/09/21 03:23:14;;;;;;;;;;;;;;;21.21;60.47;99495.88;4230089;28;19932;-67
2023/09/21 03:25:16;;;;;;;;;;;;;;;21.20;60.70;99486.16;4230214;28;19935;-68
2023/09/21 03:27:19;;;;;;;;;;;;;;;21.20;60.60;99499.53;4229871;28;19924;-68
2023/09/21 03:29:21;;;;;;;;;;;;;;;21.19;60.52;99496.03;4230286;28;19923;-67
2023/09/21 03:31:23;;;;;;;;;;;;;;;21.18;60.80;99494.34;4229803;28;20026;-68
2023/09/21 03:33:25;;;;;;;;;;;;;;;21.18;60.80;99491.69;4230003;28;20286;-68
2023/09/21 03:35:27;;;;;;;;;;;;;;;21.18;60.76;99491.69;4230150;28;20006;-68
2023/09/21 03:37:30;;;;;;;;;;;;;;;21.17;61.05;99490.00;4229835;28;20006;-68
2023/09/21 03:39:31;;;;;;;;;;;;;;;21.18;60.86;99497.03;4230175;28;19928;-68
2023/09/21 03:41:33;;;;;;;;;;;;;;;21.17;60.75;99491.84;4230202;28;19963;-67
2023/09/21 03:43:36;;;;;;;;;;;;;;;21.17;60.75;99502.53;4229691;28;19930;-68
2023/09/21 03:45:41;;;;;;;;;;;;;;;21.16;61.27;99488.31;4212945;28;19924;-67
2023/09/21 03:47:43;;;;;;;;;;;;;;;21.17;61.16;99502.53;4221274;28;19923;-67
2023/09/21 03:49:45;;;;;;;;;;;;;;;21.15;60.78;99494.66;4230088;28;19955;-67
2023/09/21 03:51:47;;;;;;;;;;;;;;;21.14;60.77;99482.31;4229965;28;19932;-67
2023/09/21 03:53:49;;;;;;;;;;;;;;;21.14;61.10;99479.63;4229637;28;20014;-68
2023/09/21 03:55:51;;;;;;;;;;;;;;;21.14;60.77;99484.97;4229974;28;19928;-69
2023/09/21 03:57:52;;;;;;;;;;;;;;;21.14;61.24;99481.44;4229752;28;19927;-68
2023/09/21 03:59:55;;;;;;;;;;;;;;;21.13;60.83;99482.44;4229992;28;19924;-69
2023/09/21 04:01:57;;;;;;;;;;;;;;;21.13;61.24;99485.09;4229535;28;20396;-69
2023/09/21 04:04:05;;;;;;;;;;;;;;;21.14;61.24;99476.94;4229875;28;19924;-68
2023/09/21 04:06:07;;;;;;;;;;;;;;;21.13;60.93;99479.75;4229933;28;19931;-68
2023/09/21 04:08:09;;;;;;;;;;;;;;;21.12;61.15;99476.25;4229542;28;20034;-69
2023/09/21 04:10:11;;;;;;;;;;;;;;;21.12;61.21;99470.91;4230078;28;19978;-68
2023/09/21 04:12:15;;;;;;;;;;;;;;;21.12;61.40;99472.72;4229934;28;19977;-68
2023/09/21 04:14:17;;;;;;;;;;;;;;;21.11;61.52;99476.41;4229758;28;20303;-67
2023/09/21 04:16:19;;;;;;;;;;;;;;;21.10;61.07;99472.88;4229562;28;19928;-67
2023/09/21 04:18:21;;;;;;;;;;;;;;;21.10;61.44;99470.22;4229727;28;19928;-68
2023/09/21 04:20:31;;;;;;;;;;;;;;;21.10;61.41;99477.41;4219037;28;20043;-67
2023/09/21 04:22:33;;;;;;;;;;;;;;;21.09;61.31;99476.56;4233147;28;19931;-68
2023/09/21 04:24:34;;;;;;;;;;;;;;;21.10;61.61;99474.72;4232587;28;19985;-68
2023/09/21 04:26:36;;;;;;;;;;;;;;;21.09;61.61;99470.38;4233150;28;20410;-67
2023/09/21 04:28:39;;;;;;;;;;;;;;;21.09;61.76;99475.72;4232660;28;19924;-68
2023/09/21 04:30:41;;;;;;;;;;;;;;;21.09;61.85;99470.38;4232178;28;19953;-68
2023/09/21 04:32:45;;;;;;;;;;;;;;;21.08;61.39;99455.31;4232899;28;20040;-67
2023/09/21 04:34:47;;;;;;;;;;;;;;;21.00;61.80;99446.25;4232655;28;19923;-68
2023/09/21 04:36:48;;;;;;;;;;;;;;;21.09;61.93;99446.31;4232840;28;20422;-67
2023/09/21 04:38:51;;;;;;;;;;;;;;;21.08;61.65;99458.00;4232833;28;19924;-67
2023/09/21 04:40:52;;;;;;;;;;;;;;;21.07;61.72;99454.50;4232883;28;19931;-68
2023/09/21 04:42:54;;;;;;;;;;;;;;;21.08;61.76;99460.66;4233013;28;19924;-67
2023/09/21 04:45:00;;;;;;;;;;;;;;;21.07;61.62;99459.84;4231994;28;19966;-67
2023/09/21 04:47:02;;;;;;;;;;;;;;;21.05;61.44;99449.28;4232680;28;19934;-67
2023/09/21 04:49:04;;;;;;;;;;;;;;;21.05;61.90;99449.28;4232414;28;19924;-67
2023/09/21 04:51:08;;;;;;;;;;;;;;;21.04;61.95;99444.09;4232305;28;19924;-68
2023/09/21 04:53:12;;;;;;;;;;;;;;;21.04;61.67;99436.91;4214789;28;19924;-68
2023/09/21 04:55:15;;;;;;;;;;;;;;;21.04;61.96;99428.88;4231985;28;19955;-67
2023/09/21 04:57:20;;;;;;;;;;;;;;;21.04;61.49;99422.72;4232392;28;19977;-67
2023/09/21 04:59:23;;;;;;;;;;;;;;;21.02;61.82;99417.53;4231972;28;20006;-67
2023/09/21 05:01:25;;;;;;;;;;;;;;;21.03;61.96;99423.69;4232452;28;19924;-67
2023/09/21 05:03:26;;;;;;;;;;;;;;;21.02;61.69;99411.34;4232454;28;20354;-67
2023/09/21 05:05:28;;;;;;;;;;;;;;;21.03;61.95;99413.00;4231909;28;19930;-67
2023/09/21 05:07:30;;;;;;;;;;;;;;;21.01;61.65;99401.63;4232573;28;20002;-67
2023/09/21 05:09:32;;;;;;;;;;;;;;;21.02;61.56;99400.63;4232205;28;19963;-68
2023/09/21 05:11:38;;;;;;;;;;;;;;;21.01;61.85;99401.63;4232049;28;19950;-68
2023/09/21 05:13:40;;;;;;;;;;;;;;;20.99;61.95;99400.97;4231912;28;19981;-69
2023/09/21 05:15:45;;;;;;;;;;;;;;;21.00;61.90;99400.81;4231874;28;19977;-68
2023/09/21 05:17:47;;;;;;;;;;;;;;;20.99;61.94;99392.94;4232071;28;19973;-68
2023/09/21 05:19:52;;;;;;;;;;;;;;;20.99;62.07;99401.78;4232218;28;19953;-68
2023/09/21 05:21:56;;;;;;;;;;;;;;;21.00;61.98;99408.00;4231638;28;19988;-68
2023/09/21 05:23:58;;;;;;;;;;;;;;;20.99;61.75;99414.31;4231984;28;19923;-68
2023/09/21 05:26:00;;;;;;;;;;;;;;;20.99;62.13;99411.66;4213571;28;20023;-68
2023/09/21 05:28:02;;;;;;;;;;;;;;;20.99;61.93;99411.66;4231354;28;20035;-68
2023/09/21 05:30:05;;;;;;;;;;;;;;;20.98;61.68;99416.16;4232065;28;19924;-68
2023/09/21 05:32:07;;;;;;;;;;;;;;;20.98;61.66;99418.00;4231140;28;20006;-68
2023/09/21 05:34:08;;;;;;;;;;;;;;;20.97;62.14;99402.94;4232026;28;20034;-68
2023/09/21 05:36:10;;;;;;;;;;;;;;;20.97;61.97;99424.31;4213560;28;20405;-68
2023/09/21 05:38:12;;;;;;;;;;;;;;;20.97;61.88;99424.31;4231857;28;19927;-67
2023/09/21 05:40:14;;;;;;;;;;;;;;;20.97;62.17;99413.63;4231715;28;19962;-67
2023/09/21 05:42:16;;;;;;;;;;;;;;;20.95;61.76;99427.16;4231068;28;20270;-67
2023/09/21 05:44:24;;;;;;;;;;;;;;;20.94;61.86;99420.13;4231770;28;19958;-67
2023/09/21 05:46:26;;;;;;;;;;;;;;;20.95;62.10;99426.31;4231273;28;19924;-67
2023/09/21 05:48:28;;;;;;;;;;;;;;;20.94;61.84;99425.47;4231481;28;19931;-68
2023/09/21 05:50:29;;;;;;;;;;;;;;;20.94;62.06;99430.00;4231819;28;19927;-68
2023/09/21 05:52:32;;;;;;;;;;;;;;;20.94;62.04;99435.34;4231285;28;19927;-68
2023/09/21 05:54:34;;;;;;;;;;;;;;;20.93;62.29;99422.97;4231317;28;19924;-68
2023/09/21 05:56:36;;;;;;;;;;;;;;;20.92;62.34;99434.66;4231152;28;19932;-68
2023/09/21 05:58:38;;;;;;;;;;;;;;;20.92;62.08;99442.66;4231355;28;19930;-68
2023/09/21 06:00:40;;;;;;;;;;;;;;;20.91;62.07;99436.47;4231552;28;19924;-68
2023/09/21 06:02:41;;;;;;;;;;;;;;;20.92;62.25;99440.81;4231190;28;20014;-69
2023/09/21 06:04:43;;;;;;;;;;;;;;;20.90;62.22;99440.16;4231396;28;19923;-69
2023/09/21 06:06:46;;;;;;;;;;;;;;;20.90;62.47;99440.97;4231068;28;19932;-68
2023/09/21 06:08:48;;;;;;;;;;;;;;;20.90;62.44;99454.34;4231512;28;20408;-68
2023/09/21 06:10:50;;;;;;;;;;;;;;;20.89;62.19;99454.50;4230990;28;19930;-68
2023/09/21 06:12:51;;;;;;;;;;;;;;;20.89;62.55;99449.97;4231364;28;19946;-68
2023/09/21 06:14:55;;;;;;;;;;;;;;;20.89;62.38;99457.19;4231417;28;20285;-69
2023/09/21 06:16:57;;;;;;;;;;;;;;;20.89;62.29;99460.66;4230974;28;19931;-68
2023/09/21 06:19:00;;;;;;;;;;;;;;;20.88;61.96;99458.16;4227457;28;19924;-68
2023/09/21 06:21:02;;;;;;;;;;;;;;;20.86;62.21;99454.78;4231034;28;19930;-68
2023/09/21 06:23:06;;;;;;;;;;;;;;;20.86;62.30;99460.13;4230852;28;19927;-69
2023/09/21 06:25:10;;;;;;;;;;;;;;;20.87;62.55;99465.31;4230956;28;20007;-68
2023/09/21 06:27:13;;;;;;;;;;;;;;;20.86;62.05;99462.81;4230729;28;19951;-68
2023/09/21 06:29:15;;;;;;;;;;;;;;;20.85;62.33;99456.63;4230813;28;20180;-68
2023/09/21 06:31:20;;;;;;;;;;;;;;;20.86;62.26;99460.13;4230986;28;20472;-69
2023/09/21 06:33:24;;;;;;;;;;;;;;;20.86;62.21;99468.16;4230127;28;19935;-68
2023/09/21 06:35:26;;;;;;;;;;;;;;;20.85;62.33;99453.97;4231105;28;20003;-68
2023/09/21 06:37:30;;;;;;;;;;;;;;;20.83;62.39;99455.94;4230326;28;20015;-68
2023/09/21 06:39:32;;;;;;;;;;;;;;;20.84;62.14;99460.28;4225865;28;19928;-69
2023/09/21 06:41:34;;;;;;;;;;;;;;;20.85;62.41;99461.97;4229673;28;20110;-68
2023/09/21 06:43:38;;;;;;;;;;;;;;;20.84;62.31;99468.31;4229742;28;19923;-67
2023/09/21 06:45:43;;;;;;;;;;;;;;;20.85;62.61;99469.13;4230678;28;19931;-68
2023/09/21 06:47:47;;;;;;;;;;;;;;;20.86;62.66;99465.47;4229813;28;19977;-69
2023/09/21 06:49:50;;;;;;;;;;;;;;;20.86;62.65;99457.47;4230498;28;19943;-68
2023/09/21 06:51:51;;;;;;;;;;;;;;;20.87;62.76;99464.50;4231019;28;19928;-69
2023/09/21 06:53:53;;;;;;;;;;;;;;;20.90;62.61;99474.91;4230712;28;19931;-67
2023/09/21 06:55:56;;;;;;;;;;;;;;;20.88;62.96;99477.69;4230214;28;20221;-66
2023/09/21 06:57:59;;;;;;;;;;;;;;;20.89;62.69;99478.56;4230228;28;20364;-66
2023/09/21 07:00:01;;;;;;;;;;;;;;;20.87;62.53;99480.53;4229721;28;20323;-67
2023/09/21 07:02:04;;;;;;;;;;;;;;;20.86;62.74;99489.53;4230534;28;19928;-67
2023/09/21 07:04:07;;;;;;;;;;;;;;;20.84;62.80;99483.50;4230117;28;19930;-67
2023/09/21 07:06:09;;;;;;;;;;;;;;;20.83;62.65;99485.34;4230437;28;20274;-67
2023/09/21 07:08:12;;;;;;;;;;;;;;;20.83;62.51;99480.00;4230521;28;20030;-67
2023/09/21 07:10:16;;;;;;;;;;;;;;;20.82;62.52;99478.31;4230063;28;20326;-66
2023/09/21 07:12:17;;;;;;;;;;;;;;;20.81;62.82;99473.94;4230426;28;19969;-66
2023/09/21 07:14:22;;;;;;;;;;;;;;;20.81;62.86;99470.44;4229874;28;19930;-66
2023/09/21 07:16:23;;;;;;;;;;;;;;;20.80;62.81;99474.94;4230045;28;19973;-66
2023/09/21 07:18:25;;;;;;;;;;;;;;;20.81;62.66;99462.44;4230179;28;19924;-66
2023/09/21 07:20:27;;;;;;;;;;;;;;;20.79;62.58;99467.94;4229995;28;19924;-66
2023/09/21 07:22:29;;;;;;;;;;;;;;;20.79;62.55;99454.56;4230435;28;19973;-66
2023/09/21 07:24:30;;;;;;;;;;;;;;;20.79;62.77;99453.72;4229800;28;19998;-66
2023/09/21 07:26:33;;;;;;;;;;;;;;;20.79;62.89;99465.25;4230213;28;20014;-66
2023/09/21 07:28:34;;;;;;;;;;;;;;;20.77;62.58;99461.03;4230010;28;19924;-66
2023/09/21 07:30:36;;;;;;;;;;;;;;;20.77;62.58;99453.03;4229903;28;20270;-66
2023/09/21 07:32:38;;;;;;;;;;;;;;;20.77;62.75;99461.03;4230133;28;20019;-66
2023/09/21 07:34:39;;;;;;;;;;;;;;;20.75;62.72;99450.50;4229981;28;20026;-66
2023/09/21 07:36:46;;;;;;;;;;;;;;;20.76;62.46;99454.03;4230109;28;19931;-67
2023/09/21 07:38:47;;;;;;;;;;;;;;;20.75;62.70;99450.50;4229838;28;20335;-66
2023/09/21 07:40:49;;;;;;;;;;;;;;;20.75;63.13;99442.50;4229758;28;19930;-66
2023/09/21 07:42:51;;;;;;;;;;;;;;;20.74;62.93;99441.66;4230130;28;19923;-67
2023/09/21 07:44:53;;;;;;;;;;;;;;;20.74;62.85;99430.97;4230057;28;19927;-66
2023/09/21 07:46:56;;;;;;;;;;;;;;;20.74;62.72;99432.78;4230085;28;19938;-66
2023/09/21 07:48:58;;;;;;;;;;;;;;;20.73;62.83;99434.63;4230021;28;19924;-66
2023/09/21 07:51:04;;;;;;;;;;;;;;;20.74;62.64;99435.47;4229793;28;19934;-66
2023/09/21 07:53:05;;;;;;;;;;;;;;;20.72;62.83;99432.94;4229824;28;19924;-66
2023/09/21 07:55:08;;;;;;;;;;;;;;;20.72;62.99;99422.25;4231842;28;19924;-66
2023/09/21 07:57:10;;;;;;;;;;;;;;;20.72;62.92;99410.75;4233418;28;19927;-66
2023/09/21 07:59:12;;;;;;;;;;;;;;;20.71;62.80;99417.88;4233500;28;19924;-66
2023/09/21 08:01:13;;;;;;;;;;;;;;;20.71;62.73;99417.06;4233306;28;19973;-66
2023/09/21 08:03:15;;;;;;;;;;;;;;;20.71;62.73;99419.72;4233433;28;20023;-66
2023/09/21 08:05:18;;;;;;;;;;;;;;;20.71;62.95;99422.41;4233403;28;19924;-66
2023/09/21 08:07:23;;;;;;;;;;;;;;;20.72;62.78;99430.28;4232656;28;19928;-66
2023/09/21 08:09:25;;;;;;;;;;;;;;;20.72;62.76;99421.44;4216270;28;19924;-66
2023/09/21 08:11:33;;;;;;;;;;;;;;;20.70;63.15;99416.19;4224994;28;19974;-65
2023/09/21 08:13:35;;;;;;;;;;;;;;;20.71;62.87;99419.72;4232968;28;19967;-66
2023/09/21 08:15:37;;;;;;;;;;;;;;;20.70;62.82;99410.03;4233307;28;19923;-65
2023/09/21 08:17:39;;;;;;;;;;;;;;;20.69;63.23;99417.22;4232968;28;19946;-66
2023/09/21 08:19:41;;;;;;;;;;;;;;;20.68;62.70;99412.84;4233145;28;19924;-66
2023/09/21 08:21:42;;;;;;;;;;;;;;;20.69;62.88;99414.53;4232299;28;19969;-66
2023/09/21 08:23:46;;;;;;;;;;;;;;;20.68;62.98;99415.53;4233184;28;19953;-66
2023/09/21 08:25:48;;;;;;;;;;;;;;;20.68;62.94;99412.84;4233323;28;20023;-67
2023/09/21 08:27:49;;;;;;;;;;;;;;;20.66;62.96;99409.50;4232887;28;19939;-66
2023/09/21 08:29:51;;;;;;;;;;;;;;;20.67;62.91;99407.63;4233096;28;19989;-66
2023/09/21 08:31:53;;;;;;;;;;;;;;;20.67;62.99;99408.50;4232483;28;19924;-66
2023/09/21 08:33:55;;;;;;;;;;;;;;;20.67;63.26;99404.97;4221731;28;19930;-66
2023/09/21 08:35:57;;;;;;;;;;;;;;;20.66;62.99;99401.47;4232682;28;19931;-66
2023/09/21 08:37:59;;;;;;;;;;;;;;;20.65;62.87;99405.13;4232682;28;20373;-66
2023/09/21 08:40:02;;;;;;;;;;;;;;;20.66;62.97;99403.31;4232727;28;20015;-66
2023/09/21 08:42:04;;;;;;;;;;;;;;;20.65;62.99;99412.31;4232446;28;19927;-66
2023/09/21 08:44:07;;;;;;;;;;;;;;;20.64;62.90;99410.63;4232728;28;19924;-66
2023/09/21 08:46:11;;;;;;;;;;;;;;;20.64;62.96;99413.31;4232799;28;19963;-66
2023/09/21 08:48:15;;;;;;;;;;;;;;;20.63;63.40;99412.44;4232419;28;19923;-66
2023/09/21 08:50:17;;;;;;;;;;;;;;;20.63;63.05;99415.13;4231998;28;19978;-66
2023/09/21 08:52:20;;;;;;;;;;;;;;;20.62;63.07;99408.13;4232638;28;20035;-66
2023/09/21 08:54:23;;;;;;;;;;;;;;;20.62;63.06;99408.13;4232269;28;19924;-66
2023/09/21 08:56:26;;;;;;;;;;;;;;;20.63;62.99;99403.59;4232754;28;20006;-66
2023/09/21 08:58:33;;;;;;;;;;;;;;;20.62;63.30;99401.94;4232405;28;20446;-66
2023/09/21 09:00:35;;;;;;;;;;;;;;;20.63;63.28;99411.63;4214463;28;19982;-67
2023/09/21 09:02:37;;;;;;;;;;;;;;;20.61;63.34;99394.91;4232266;28;19955;-66
2023/09/21 09:04:42;;;;;;;;;;;;;;;20.62;63.33;99404.59;4231869;28;20040;-66
2023/09/21 09:06:44;;;;;;;;;;;;;;;20.61;62.98;99409.13;4231530;28;20297;-66
2023/09/21 09:08:46;;;;;;;;;;;;;;;20.59;63.24;99401.22;4213860;28;19928;-67
2023/09/21 09:10:48;;;;;;;;;;;;;;;20.59;63.02;99395.88;4232255;28;19924;-67
2023/09/21 09:13:02;;;;;;;;;;;;;;;20.59;63.06;99400.41;4232279;28;19984;-67
2023/09/21 09:15:05;;;;;;;;;;;;;;;20.59;63.10;99393.22;4232056;28;19931;-67
2023/09/21 09:17:12;;;;;;;;;;;;;;;20.58;63.20;99388.88;4232242;28;19938;-67
2023/09/21 09:19:14;;;;;;;;;;;;;;;20.57;63.44;99381.88;4231715;28;20250;-67
2023/09/21 09:21:18;;;;;;;;;;;;;;;20.58;63.01;99380.03;4231923;28;20389;-67
2023/09/21 09:23:20;;;;;;;;;;;;;;;20.58;63.34;99374.69;4232037;28;19940;-67
2023/09/21 09:25:22;;;;;;;;;;;;;;;20.57;63.45;99368.50;4231953;28;19924;-67
2023/09/21 09:27:24;;;;;;;;;;;;;;;20.56;63.09;99366.81;4231966;28;19931;-67
2023/09/21 09:29:26;;;;;;;;;;;;;;;20.57;63.15;99370.31;4231862;28;19978;-67
2023/09/21 09:31:28;;;;;;;;;;;;;;;20.56;63.33;99355.28;4231887;28;20066;-67
2023/09/21 09:33:33;;;;;;;;;;;;;;;20.56;63.44;99361.47;4231524;28;19943;-62
2023/09/21 09:35:37;;;;;;;;;;;;;;;20.56;63.14;99365.97;4231878;28;20296;-67
2023/09/21 09:37:42;;;;;;;;;;;;;;;20.55;63.16;99357.13;4231996;28;19924;-67
2023/09/21 09:39:44;;;;;;;;;;;;;;;20.56;63.34;99363.28;4231662;28;19928;-67
2023/09/21 09:41:48;;;;;;;;;;;;;;;20.55;63.16;99367.81;4231734;28;20010;-67
2023/09/21 09:43:53;;;;;;;;;;;;;;;20.55;63.39;99362.47;4231686;28;20015;-67
2023/09/21 09:45:55;;;;;;;;;;;;;;;20.54;63.48;99354.63;4228399;28;20350;-67
2023/09/21 09:47:57;;;;;;;;;;;;;;;20.54;63.54;99381.31;4232087;28;19924;-66
2023/09/21 09:50:03;;;;;;;;;;;;;;;20.54;63.17;99392.00;4231485;28;19924;-67
2023/09/21 09:52:06;;;;;;;;;;;;;;;20.53;63.40;99391.16;4231687;28;19993;-67
2023/09/21 09:54:11;;;;;;;;;;;;;;;20.53;63.51;99411.69;4231461;28;19931;-67
2023/09/21 09:56:14;;;;;;;;;;;;;;;20.52;63.41;99415.34;4227873;28;19977;-67
2023/09/21 09:58:16;;;;;;;;;;;;;;;20.51;63.18;99402.97;4231484;28;19924;-67
2023/09/21 10:00:22;;;;;;;;;;;;;;;20.49;63.46;99395.13;4213242;28;19966;-67
2023/09/21 10:02:25;;;;;;;;;;;;;;;20.49;63.09;99396.97;4231403;28;19924;-67
2023/09/21 10:04:33;;;;;;;;;;;;;;;20.48;63.41;99387.28;4231170;28;19969;-67
2023/09/21 10:06:36;;;;;;;;;;;;;;;20.48;63.39;99395.28;4213184;28;19928;-67
2023/09/21 10:08:38;;;;;;;;;;;;;;;20.48;63.07;99395.28;4231405;28;20093;-67
2023/09/21 10:10:44;;;;;;;;;;;;;;;20.48;62.93;99395.28;4231260;28;19924;-67
2023/09/21 10:12:52;;;;;;;;;;;;;;;20.46;63.19;99386.59;4231233;28;19963;-68
2023/09/21 10:14:53;;;;;;;;;;;;;;;20.46;63.22;99386.59;4231103;28;19952;-67
2023/09/21 10:16:56;;;;;;;;;;;;;;;20.46;63.20;99389.25;4231138;28;20011;-68
2023/09/21 10:19:00;;;;;;;;;;;;;;;20.46;62.89;99387.41;4231219;28;20162;-67
2023/09/21 10:21:26;;;;;;;;;;;;;;;20.46;62.86;99387.41;4230736;28;19924;-67
2023/09/21 10:23:33;;;;;;;;;;;;;;;20.43;62.98;99383.22;4231156;28;19924;-67
2023/09/21 10:25:46;;;;;;;;;;;;;;;20.44;62.94;99384.06;4231227;28;20369;-67
2023/09/21 10:27:49;;;;;;;;;;;;;;;20.45;63.02;99387.56;4220837;28;19946;-67
2023/09/21 10:29:51;;;;;;;;;;;;;;;20.43;62.70;99387.72;4231314;28;19924;-67
2023/09/21 10:31:57;;;;;;;;;;;;;;;20.43;62.69;99395.75;4230423;28;20006;-68
2023/09/21 10:33:58;;;;;;;;;;;;;;;20.43;62.63;99393.91;4231074;28;20211;-67
2023/09/21 10:36:00;;;;;;;;;;;;;;;20.43;62.72;99393.06;4230589;28;20006;-67
2023/09/21 10:38:15;;;;;;;;;;;;;;;20.41;62.72;99385.22;4231041;28;19924;-68
2023/09/21 10:40:26;;;;;;;;;;;;;;;20.41;62.68;99392.38;4231069;28;19935;-67